createdAt,value
2023-11-24T00:00:33.023Z,6.07
2023-11-24T00:03:00.003Z,5.97
2023-11-24T00:05:27.028Z,6.35
2023-11-24T00:07:53.879Z,5.20
2023-11-24T00:10:20.711Z,6.15
2023-11-24T00:12:47.675Z,6.00
2023-11-24T00:15:14.932Z,5.83
2023-11-24T00:17:41.641Z,5.75
2023-11-24T00:20:09.491Z,5.63
2023-11-24T00:22:36.310Z,5.32
2023-11-24T00:25:03.404Z,4.88
2023-11-24T00:27:30.614Z,5.33
2023-11-24T00:29:57.420Z,5.15
2023-11-24T00:32:25.201Z,5.53
2023-11-24T00:34:52.304Z,5.53
2023-11-24T00:37:18.956Z,5.05
2023-11-24T00:39:46.010Z,5.53
2023-11-24T00:42:12.654Z,5.05
2023-11-24T00:44:40.588Z,5.22
2023-11-24T00:47:08.326Z,4.88
2023-11-24T00:49:36.105Z,5.00
2023-11-24T00:52:03.949Z,5.00
2023-11-24T00:54:30.862Z,5.00
2023-11-24T00:56:57.860Z,5.20
2023-11-24T00:59:24.550Z,4.57
2023-11-24T01:01:51.616Z,5.05
2023-11-24T01:04:18.594Z,4.70
2023-11-24T01:06:46.289Z,4.45
2023-11-24T01:09:14.291Z,4.57
2023-11-24T01:11:41.444Z,4.47
2023-11-24T01:14:09.224Z,4.50
2023-11-24T01:16:36.821Z,4.60
2023-11-24T01:19:04.587Z,4.95
2023-11-24T01:21:32.204Z,4.50
2023-11-24T01:24:03.831Z,4.30
2023-11-24T01:26:30.980Z,3.70
2023-11-24T01:29:00.046Z,4.37
2023-11-24T01:31:27.342Z,4.38
2023-11-24T01:33:54.378Z,4.30
2023-11-24T01:36:21.091Z,3.88
2023-11-24T01:38:48.238Z,4.15
2023-11-24T01:41:15.175Z,3.90
2023-11-24T01:43:58.605Z,4.07
2023-11-24T01:46:26.046Z,4.20
2023-11-24T01:48:54.726Z,4.00
2023-11-24T01:51:21.950Z,3.78
2023-11-24T01:53:52.428Z,3.73
2023-11-24T01:56:23.272Z,4.05
2023-11-24T01:58:53.593Z,3.90
2023-11-24T02:01:26.021Z,3.88
2023-11-24T02:03:55.050Z,4.28
2023-11-24T02:06:22.696Z,3.80
2023-11-24T02:08:49.599Z,4.10
2023-11-24T02:11:17.034Z,3.80
2023-11-24T02:13:48.101Z,3.60
2023-11-24T02:16:15.113Z,3.67
2023-11-24T02:18:42.600Z,3.63
2023-11-24T02:21:12.491Z,3.80
2023-11-24T02:23:39.258Z,3.72
2023-11-24T02:26:05.956Z,3.83
2023-11-24T02:28:32.675Z,3.45
2023-11-24T02:31:02.323Z,3.50
2023-11-24T02:33:29.306Z,3.50
2023-11-24T02:36:06.331Z,3.50
2023-11-24T02:38:33.882Z,3.45
2023-11-24T02:41:01.580Z,3.85
2023-11-24T02:43:29.115Z,3.30
2023-11-24T02:45:56.082Z,3.20
2023-11-24T02:48:37.372Z,3.10
2023-11-24T02:51:05.869Z,3.50
2023-11-24T02:53:32.903Z,3.00
2023-11-24T02:55:59.563Z,3.10
2023-11-24T02:58:26.766Z,2.90
2023-11-24T03:00:54.586Z,3.60
2023-11-24T03:03:21.778Z,3.40
2023-11-24T03:05:49.124Z,3.30
2023-11-24T03:08:16.002Z,2.73
2023-11-24T03:10:42.813Z,3.50
2023-11-24T03:13:09.504Z,3.45
2023-11-24T03:15:36.870Z,2.97
2023-11-24T03:18:05.407Z,3.22
2023-11-24T03:20:32.424Z,3.27
2023-11-24T03:22:59.246Z,2.67
2023-11-24T03:25:26.600Z,3.33
2023-11-24T03:27:54.698Z,3.28
2023-11-24T03:30:21.564Z,3.08
2023-11-24T03:32:48.979Z,3.00
2023-11-24T03:35:16.203Z,2.90
2023-11-24T03:37:43.731Z,2.80
2023-11-24T03:40:11.411Z,2.83
2023-11-24T03:42:39.717Z,3.00
2023-11-24T03:45:08.132Z,2.87
2023-11-24T03:47:34.928Z,3.13
2023-11-24T03:50:02.298Z,3.00
2023-11-24T03:52:29.248Z,2.70
2023-11-24T03:54:56.581Z,2.95
2023-11-24T03:57:23.619Z,2.93
2023-11-24T03:59:52.883Z,2.45
2023-11-24T04:02:19.809Z,2.67
2023-11-24T04:04:47.761Z,3.03
2023-11-24T04:07:16.548Z,2.50
2023-11-24T04:09:43.891Z,2.50
2023-11-24T04:12:10.825Z,2.40
2023-11-24T04:14:37.611Z,2.90
2023-11-24T04:17:06.124Z,2.50
2023-11-24T04:19:32.938Z,2.33
2023-11-24T04:21:59.756Z,2.37
2023-11-24T04:24:26.688Z,2.55
2023-11-24T04:26:53.998Z,2.53
2023-11-24T04:29:22.847Z,2.60
2023-11-24T04:31:49.683Z,2.72
2023-11-24T04:34:16.465Z,2.57
2023-11-24T04:36:43.286Z,2.50
2023-11-24T04:39:10.110Z,2.47
2023-11-24T04:41:36.807Z,2.10
2023-11-24T04:44:04.156Z,2.47
2023-11-24T04:46:31.429Z,2.50
2023-11-24T04:49:04.096Z,2.50
2023-11-24T04:51:34.694Z,2.17
2023-11-24T04:54:04.577Z,2.00
2023-11-24T04:56:32.231Z,2.33
2023-11-24T04:58:59.016Z,2.27
2023-11-24T05:01:29.503Z,2.35
2023-11-24T05:03:59.001Z,2.33
2023-11-24T05:06:26.407Z,1.80
2023-11-24T05:08:54.627Z,2.22
2023-11-24T05:11:22.532Z,2.20
2023-11-24T05:13:52.595Z,2.25
2023-11-24T05:16:19.685Z,2.28
2023-11-24T05:18:46.646Z,2.40
2023-11-24T05:21:13.334Z,2.38
2023-11-24T05:23:40.112Z,1.87
2023-11-24T05:26:06.976Z,2.00
2023-11-24T05:28:34.946Z,2.10
2023-11-24T05:31:04.710Z,2.30
2023-11-24T05:33:31.966Z,1.98
2023-11-24T05:35:58.734Z,2.00
2023-11-24T05:38:25.496Z,2.28
2023-11-24T05:40:52.246Z,2.13
2023-11-24T05:43:19.187Z,1.98
2023-11-24T05:45:48.222Z,2.13
2023-11-24T05:48:16.429Z,2.10
2023-11-24T05:50:43.209Z,1.90
2023-11-24T05:53:09.891Z,2.17
2023-11-24T05:55:36.646Z,1.80
2023-11-24T05:58:06.929Z,1.80
2023-11-24T06:00:33.778Z,1.70
2023-11-24T06:03:00.633Z,1.98
2023-11-24T06:05:27.402Z,1.90
2023-11-24T06:07:56.439Z,1.63
2023-11-24T06:10:24.079Z,1.65
2023-11-24T06:12:50.836Z,2.03
2023-11-24T06:15:17.570Z,1.98
2023-11-24T06:17:44.240Z,2.00
2023-11-24T06:20:12.561Z,1.70
2023-11-24T06:22:39.263Z,1.73
2023-11-24T06:25:06.798Z,2.03
2023-11-24T06:27:33.564Z,1.80
2023-11-24T06:30:00.475Z,2.03
2023-11-24T06:32:27.242Z,1.85
2023-11-24T06:34:55.093Z,1.92
2023-11-24T06:37:21.804Z,2.10
2023-11-24T06:39:48.984Z,1.90
2023-11-24T06:42:15.593Z,2.08
2023-11-24T06:44:42.422Z,1.40
2023-11-24T06:47:09.163Z,1.10
2023-11-24T06:49:35.859Z,1.00
2023-11-24T06:52:03.145Z,1.00
2023-11-24T06:54:30.904Z,1.05
2023-11-24T06:56:58.338Z,0.80
2023-11-24T06:59:26.195Z,0.85
2023-11-24T07:01:53.059Z,1.00
2023-11-24T07:04:22.425Z,0.80
2023-11-24T07:06:49.338Z,0.80
2023-11-24T07:09:15.980Z,0.70
2023-11-24T07:11:48.573Z,0.90
2023-11-24T07:14:15.972Z,0.90
2023-11-24T07:16:43.246Z,0.93
2023-11-24T07:19:11.778Z,0.70
2023-11-24T07:21:40.213Z,0.73
2023-11-24T07:24:07.600Z,1.15
2023-11-24T07:26:34.307Z,0.70
2023-11-24T07:29:00.980Z,0.68
2023-11-24T07:31:29.561Z,0.80
2023-11-24T07:33:56.418Z,0.63
2023-11-24T07:36:23.553Z,0.90
2023-11-24T07:38:50.555Z,0.70
2023-11-24T07:41:17.340Z,0.90
2023-11-24T07:43:59.674Z,0.98
2023-11-24T07:46:26.422Z,0.70
2023-11-24T07:48:53.403Z,0.75
2023-11-24T07:51:22.841Z,1.07
2023-11-24T07:53:49.622Z,0.90
2023-11-24T07:56:19.179Z,0.80
2023-11-24T07:58:46.659Z,0.80
2023-11-24T08:01:14.888Z,0.80
2023-11-24T08:03:41.776Z,0.80
2023-11-24T08:06:09.743Z,0.85
2023-11-24T08:08:36.728Z,0.77
2023-11-24T08:11:04.177Z,0.80
2023-11-24T08:13:31.164Z,0.77
2023-11-24T08:15:58.235Z,0.60
2023-11-24T08:18:25.782Z,0.90
2023-11-24T08:20:56.120Z,0.70
2023-11-24T08:23:22.866Z,0.70
2023-11-24T08:25:50.152Z,0.88
2023-11-24T08:28:16.896Z,0.70
2023-11-24T08:30:44.683Z,0.70
2023-11-24T08:33:11.850Z,0.90
2023-11-24T08:35:39.835Z,1.00
2023-11-24T08:38:06.494Z,0.85
2023-11-24T08:40:33.885Z,0.60
2023-11-24T08:43:02.243Z,0.80
2023-11-24T08:45:29.670Z,1.08
2023-11-24T08:47:56.439Z,1.00
2023-11-24T08:50:23.451Z,0.90
2023-11-24T08:52:51.525Z,1.00
2023-11-24T08:55:18.315Z,1.00
2023-11-24T08:57:45.603Z,1.00
2023-11-24T09:00:15.597Z,0.80
2023-11-24T09:02:42.869Z,0.90
2023-11-24T09:05:10.876Z,0.60
2023-11-24T09:07:37.972Z,1.52
2023-11-24T09:10:05.259Z,1.75
2023-11-24T09:12:32.633Z,1.45
2023-11-24T09:14:59.426Z,1.80
2023-11-24T09:17:27.693Z,1.37
2023-11-24T09:19:55.177Z,1.17
2023-11-24T09:22:23.512Z,1.48
2023-11-24T09:24:50.312Z,1.63
2023-11-24T09:27:18.201Z,1.30
2023-11-24T09:29:44.917Z,1.03
2023-11-24T09:32:12.849Z,1.48
2023-11-24T09:34:39.735Z,1.48
2023-11-24T09:37:06.883Z,1.73
2023-11-24T09:39:34.070Z,1.48
2023-11-24T09:42:05.232Z,1.50
2023-11-24T09:44:32.891Z,1.90
2023-11-24T09:46:59.804Z,1.45
2023-11-24T09:49:26.929Z,1.70
2023-11-24T09:51:55.056Z,1.50
2023-11-24T09:54:23.170Z,1.60
2023-11-24T09:56:50.311Z,1.50
2023-11-24T09:59:17.077Z,1.70
2023-11-24T10:01:45.364Z,1.70
2023-11-24T10:04:13.941Z,1.50
2023-11-24T10:06:43.631Z,1.47
2023-11-24T10:09:12.088Z,1.35
2023-11-24T10:11:40.159Z,1.40
2023-11-24T10:14:13.566Z,1.25
2023-11-24T10:16:42.752Z,1.70
2023-11-24T10:19:20.930Z,2.33
2023-11-24T10:21:52.866Z,1.88
2023-11-24T10:24:25.998Z,1.70
2023-11-24T10:26:54.608Z,1.70
2023-11-24T10:29:28.287Z,1.70
2023-11-24T10:31:55.456Z,1.90
2023-11-24T10:34:25.535Z,1.80
2023-11-24T10:36:54.549Z,1.83
2023-11-24T10:39:24.465Z,1.70
2023-11-24T10:41:56.313Z,1.80
2023-11-24T10:44:26.148Z,1.60
2023-11-24T10:46:57.560Z,1.63
2023-11-24T10:49:35.882Z,1.70
2023-11-24T10:52:08.199Z,1.52
2023-11-24T10:54:36.658Z,1.70
2023-11-24T10:57:07.036Z,1.50
2023-11-24T10:59:37.328Z,1.45
2023-11-24T11:02:08.161Z,1.70
2023-11-24T11:04:37.173Z,1.50
2023-11-24T11:07:09.850Z,1.75
2023-11-24T11:09:49.684Z,1.57
2023-11-24T11:12:32.631Z,1.45
2023-11-24T11:15:00.559Z,1.40
2023-11-24T11:17:27.825Z,1.50
2023-11-24T11:20:13.906Z,1.50
2023-11-24T11:22:43.906Z,1.47
2023-11-24T11:25:13.870Z,1.50
2023-11-24T11:27:43.190Z,1.55
2023-11-24T11:30:16.941Z,1.55
2023-11-24T11:32:43.979Z,1.60
2023-11-24T11:35:12.225Z,1.53
2023-11-24T11:37:39.025Z,1.60
2023-11-24T11:40:16.873Z,1.48
2023-11-24T11:43:00.762Z,1.80
2023-11-24T11:45:31.642Z,1.52
2023-11-24T11:48:04.418Z,1.53
2023-11-24T11:50:35.906Z,1.50
2023-11-24T11:53:03.745Z,1.60
2023-11-24T11:55:30.845Z,1.30
2023-11-24T11:57:59.089Z,1.38
2023-11-24T12:00:28.721Z,1.23
2023-11-24T12:02:57.165Z,1.60
2023-11-24T12:05:24.799Z,1.27
2023-11-24T12:07:54.135Z,1.40
2023-11-24T12:10:22.169Z,1.60
2023-11-24T12:12:50.224Z,1.20
2023-11-24T12:15:19.062Z,1.30
2023-11-24T12:17:46.414Z,1.42
2023-11-24T12:20:15.449Z,1.42
2023-11-24T12:22:46.671Z,1.20
2023-11-24T12:25:14.566Z,1.30
2023-11-24T12:27:44.773Z,1.33
2023-11-24T12:30:16.134Z,1.30
2023-11-24T12:32:45.854Z,1.35
2023-11-24T12:35:12.698Z,1.20
2023-11-24T12:37:45.535Z,1.30
2023-11-24T12:40:13.029Z,1.33
2023-11-24T12:42:45.273Z,1.33
2023-11-24T12:45:13.815Z,1.50
2023-11-24T12:47:42.447Z,1.40
2023-11-24T12:50:14.405Z,1.30
2023-11-24T12:52:45.587Z,1.50
2023-11-24T12:55:12.981Z,1.52
2023-11-24T12:57:43.592Z,1.52
2023-11-24T13:00:17.731Z,1.13
2023-11-24T13:02:46.035Z,1.33
2023-11-24T13:05:14.763Z,1.20
2023-11-24T13:07:42.539Z,1.40
2023-11-24T13:10:12.727Z,1.50
2023-11-24T13:12:40.717Z,1.15
2023-11-24T13:15:08.733Z,1.13
2023-11-24T13:17:35.670Z,1.27
2023-11-24T13:20:05.341Z,1.33
2023-11-24T13:22:35.486Z,1.23
2023-11-24T13:25:02.671Z,1.25
2023-11-24T13:27:30.357Z,1.00
2023-11-24T13:29:58.210Z,1.25
2023-11-24T13:32:25.157Z,1.30
2023-11-24T13:34:52.243Z,1.25
2023-11-24T13:37:19.927Z,1.30
2023-11-24T13:39:47.475Z,1.30
2023-11-24T13:42:14.607Z,1.30
2023-11-24T13:44:46.335Z,1.10
2023-11-24T13:47:14.520Z,1.00
2023-11-24T13:49:45.778Z,1.40
2023-11-24T13:52:16.072Z,1.10
2023-11-24T13:54:43.657Z,1.17
2023-11-24T13:57:11.352Z,1.27
2023-11-24T13:59:38.281Z,1.10
2023-11-24T14:02:06.885Z,1.00
2023-11-24T14:04:35.697Z,1.03
2023-11-24T14:07:04.211Z,1.00
2023-11-24T14:09:33.159Z,0.90
2023-11-24T14:12:06.482Z,1.15
2023-11-24T14:14:36.176Z,0.95
2023-11-24T14:17:06.102Z,1.00
2023-11-24T14:19:34.812Z,0.95
2023-11-24T14:22:06.125Z,1.10
2023-11-24T14:24:34.040Z,1.02
2023-11-24T14:27:01.343Z,0.95
2023-11-24T14:29:29.627Z,0.80
2023-11-24T14:31:57.649Z,1.00
2023-11-24T14:34:25.667Z,1.10
2023-11-24T14:36:52.757Z,0.80
2023-11-24T14:39:33.137Z,1.00
2023-11-24T14:42:00.623Z,0.90
2023-11-24T14:44:28.416Z,1.10
2023-11-24T14:46:55.471Z,0.85
2023-11-24T14:49:22.703Z,0.73
2023-11-24T14:51:50.569Z,1.05
2023-11-24T14:54:19.352Z,0.87
2023-11-24T14:56:49.484Z,1.15
2023-11-24T14:59:16.893Z,1.00
2023-11-24T15:01:44.695Z,0.70
2023-11-24T15:04:19.077Z,0.80
2023-11-24T15:06:52.171Z,1.00
2023-11-24T15:09:20.105Z,1.08
2023-11-24T15:11:49.816Z,1.00
2023-11-24T15:14:17.021Z,0.90
2023-11-24T15:16:53.962Z,0.90
2023-11-24T15:19:27.898Z,0.80
2023-11-24T15:21:56.846Z,0.95
2023-11-24T15:24:24.429Z,0.90
2023-11-24T15:26:53.186Z,0.80
2023-11-24T15:29:20.115Z,1.00
2023-11-24T15:31:46.944Z,1.00
2023-11-24T15:34:14.843Z,0.95
2023-11-24T15:36:42.208Z,0.70
2023-11-24T15:39:12.698Z,0.88
2023-11-24T15:41:40.245Z,1.10
2023-11-24T15:44:09.800Z,0.90
2023-11-24T15:46:39.439Z,1.10
2023-11-24T15:49:16.100Z,1.00
2023-11-24T15:51:47.499Z,0.95
2023-11-24T15:54:18.814Z,1.00
2023-11-24T15:56:45.862Z,0.90
2023-11-24T15:59:14.071Z,1.10
2023-11-24T16:01:45.573Z,0.93
2023-11-24T16:04:13.277Z,1.20
2023-11-24T16:06:42.137Z,0.90
2023-11-24T16:09:12.201Z,0.77
2023-11-24T16:11:46.727Z,1.02
2023-11-24T16:14:14.432Z,1.02
2023-11-24T16:16:46.792Z,0.80
2023-11-24T16:19:15.178Z,1.27
2023-11-24T16:21:43.168Z,0.70
2023-11-24T16:24:10.351Z,0.90
2023-11-24T16:26:37.156Z,0.95
2023-11-24T16:29:04.671Z,0.90
2023-11-24T16:31:34.867Z,1.02
2023-11-24T16:34:02.731Z,0.93
2023-11-24T16:36:29.610Z,1.00
2023-11-24T16:38:56.400Z,1.00
2023-11-24T16:41:24.607Z,1.00
2023-11-24T16:43:51.458Z,1.08
2023-11-24T16:46:18.831Z,1.00
2023-11-24T16:48:45.953Z,0.90
2023-11-24T16:51:15.131Z,1.00
2023-11-24T16:53:42.383Z,1.00
2023-11-24T16:56:09.368Z,1.20
2023-11-24T16:58:36.082Z,1.00
2023-11-24T17:01:03.557Z,1.00
2023-11-24T17:03:31.836Z,1.10
2023-11-24T17:05:59.097Z,1.02
2023-11-24T17:08:26.078Z,0.90
2023-11-24T17:10:52.866Z,1.03
2023-11-24T17:13:19.671Z,0.95
2023-11-24T17:15:46.705Z,1.17
2023-11-24T17:18:15.314Z,0.90
2023-11-24T17:20:45.219Z,1.00
2023-11-24T17:23:21.528Z,1.10
2023-11-24T17:25:49.504Z,1.02
2023-11-24T17:28:18.235Z,1.02
2023-11-24T17:30:47.817Z,0.85
2023-11-24T17:33:15.675Z,1.00
2023-11-24T17:35:45.172Z,1.03
2023-11-24T17:38:12.702Z,0.90
2023-11-24T17:40:39.878Z,1.17
2023-11-24T17:43:06.994Z,1.15
2023-11-24T17:45:37.418Z,0.90
2023-11-24T17:48:10.324Z,1.07
2023-11-24T17:50:38.746Z,1.10
2023-11-24T17:53:08.027Z,1.35
2023-11-24T17:55:35.618Z,1.40
2023-11-24T17:58:05.585Z,1.15
2023-11-24T18:00:33.524Z,1.10
2023-11-24T18:03:01.564Z,1.30
2023-11-24T18:05:28.446Z,1.20
2023-11-24T18:07:55.449Z,1.27
2023-11-24T18:10:24.158Z,1.45
2023-11-24T18:12:54.989Z,1.20
2023-11-24T18:15:22.993Z,1.40
2023-11-24T18:17:50.065Z,1.30
2023-11-24T18:20:18.650Z,1.40
2023-11-24T18:22:45.795Z,1.40
2023-11-24T18:25:13.705Z,1.60
2023-11-24T18:27:41.090Z,1.30
2023-11-24T18:30:13.225Z,1.30
2023-11-24T18:32:41.174Z,1.40
2023-11-24T18:35:09.980Z,1.65
2023-11-24T18:37:37.261Z,1.30
2023-11-24T18:40:07.355Z,1.27
2023-11-24T18:42:34.710Z,1.50
2023-11-24T18:45:03.210Z,1.40
2023-11-24T18:47:33.546Z,1.30
2023-11-24T18:50:00.822Z,1.47
2023-11-24T18:52:27.786Z,1.30
2023-11-24T18:54:54.832Z,1.50
2023-11-24T18:57:23.304Z,1.60
2023-11-24T18:59:49.974Z,1.60
2023-11-24T19:02:16.917Z,1.50
2023-11-24T19:04:44.539Z,1.42
2023-11-24T19:07:12.079Z,1.60
2023-11-24T19:09:39.258Z,1.50
2023-11-24T19:12:08.089Z,1.60
2023-11-24T19:14:35.496Z,1.50
2023-11-24T19:17:02.687Z,1.50
2023-11-24T19:19:31.458Z,1.60
2023-11-24T19:22:02.051Z,1.50
2023-11-24T19:24:30.629Z,1.30
2023-11-24T19:26:58.654Z,1.50
2023-11-24T19:29:26.252Z,1.50
2023-11-24T19:31:54.131Z,1.83
2023-11-24T19:34:23.022Z,1.42
2023-11-24T19:36:59.237Z,1.38
2023-11-24T19:39:30.124Z,1.27
2023-11-24T19:41:58.168Z,1.50
2023-11-24T19:44:38.739Z,1.25
2023-11-24T19:47:10.375Z,1.27
2023-11-24T19:49:38.480Z,1.60
2023-11-24T19:52:07.965Z,1.40
2023-11-24T19:54:35.240Z,1.50
2023-11-24T19:57:02.388Z,1.52
2023-11-24T19:59:29.442Z,1.38
2023-11-24T20:01:58.336Z,1.55
2023-11-24T20:04:25.668Z,1.30
2023-11-24T20:06:55.303Z,1.50
2023-11-24T20:09:23.634Z,1.42
2023-11-24T20:11:53.112Z,1.55
2023-11-24T20:14:20.024Z,1.40
2023-11-24T20:16:48.759Z,1.40
2023-11-24T20:19:17.012Z,1.40
2023-11-24T20:21:44.322Z,1.40
2023-11-24T20:24:11.869Z,1.35
2023-11-24T20:26:41.400Z,1.27
2023-11-24T20:29:09.210Z,1.07
2023-11-24T20:31:36.580Z,1.45
2023-11-24T20:34:04.998Z,1.35
2023-11-24T20:36:34.651Z,1.40
2023-11-24T20:39:01.447Z,1.58
2023-11-24T20:41:30.089Z,1.20
2023-11-24T20:43:56.736Z,1.30
2023-11-24T20:46:24.269Z,1.52
2023-11-24T20:48:51.396Z,1.73
2023-11-24T20:51:18.316Z,1.20
2023-11-24T20:53:45.343Z,1.40
2023-11-24T20:56:12.538Z,1.48
2023-11-24T20:58:39.983Z,1.20
2023-11-24T21:01:09.137Z,1.40
2023-11-24T21:03:37.316Z,1.35
2023-11-24T21:06:05.952Z,1.13
2023-11-24T21:08:36.295Z,1.20
2023-11-24T21:11:03.476Z,1.30
2023-11-24T21:13:30.209Z,1.40
2023-11-24T21:15:57.382Z,1.30
2023-11-24T21:18:28.369Z,1.20
2023-11-24T21:20:56.496Z,1.45
2023-11-24T21:23:27.149Z,1.35
2023-11-24T21:25:54.375Z,1.30
2023-11-24T21:28:24.373Z,1.30
2023-11-24T21:30:51.282Z,1.30
2023-11-24T21:33:18.029Z,1.33
2023-11-24T21:35:45.667Z,1.48
2023-11-24T21:38:18.597Z,1.17
2023-11-24T21:40:49.029Z,1.20
2023-11-24T21:43:15.886Z,1.20
2023-11-24T21:45:43.093Z,1.33
2023-11-24T21:48:10.783Z,1.35
2023-11-24T21:50:37.993Z,1.40
2023-11-24T21:53:09.227Z,1.38
2023-11-24T21:55:36.649Z,1.17
2023-11-24T21:58:03.513Z,1.20
2023-11-24T22:00:30.669Z,1.40
2023-11-24T22:02:57.648Z,1.38
2023-11-24T22:05:25.024Z,1.17
2023-11-24T22:07:51.747Z,1.20
2023-11-24T22:10:19.705Z,1.23
2023-11-24T22:12:46.851Z,1.38
2023-11-24T22:15:13.845Z,1.40
2023-11-24T22:17:44.012Z,1.30
2023-11-24T22:20:12.354Z,1.40
2023-11-24T22:22:40.524Z,1.17
2023-11-24T22:25:08.540Z,1.17
2023-11-24T22:27:38.452Z,1.23
2023-11-24T22:30:07.754Z,1.20
2023-11-24T22:32:36.221Z,1.23
2023-11-24T22:35:04.077Z,1.10
2023-11-24T22:37:33.397Z,1.30
2023-11-24T22:40:00.830Z,1.40
2023-11-24T22:42:27.709Z,1.20
2023-11-24T22:44:55.519Z,1.03
2023-11-24T22:47:25.101Z,1.17
2023-11-24T22:49:51.929Z,1.20
2023-11-24T22:52:18.528Z,1.35
2023-11-24T22:54:46.076Z,1.20
2023-11-24T22:57:12.955Z,1.00
2023-11-24T22:59:39.739Z,1.17
2023-11-24T23:02:06.635Z,1.08
2023-11-24T23:04:33.599Z,0.98
2023-11-24T23:07:00.366Z,1.17
2023-11-24T23:09:27.147Z,0.93
2023-11-24T23:11:53.777Z,1.20
2023-11-24T23:14:21.121Z,1.20
2023-11-24T23:16:48.558Z,1.20
2023-11-24T23:19:16.648Z,1.13
2023-11-24T23:21:46.961Z,1.30
2023-11-24T23:24:15.447Z,1.20
2023-11-24T23:26:43.892Z,1.30
2023-11-24T23:29:11.996Z,1.20
2023-11-24T23:31:42.806Z,1.40
2023-11-24T23:34:11.531Z,1.40
2023-11-24T23:36:38.934Z,1.05
2023-11-24T23:39:05.612Z,1.20
2023-11-24T23:41:32.914Z,0.93
2023-11-24T23:43:59.731Z,1.20
2023-11-24T23:46:26.597Z,0.97
2023-11-24T23:48:55.547Z,1.00
2023-11-24T23:51:22.324Z,1.08
2023-11-24T23:53:49.595Z,1.02
2023-11-24T23:56:16.397Z,0.88
2023-11-24T23:58:43.219Z,1.00
